Idyllwild, CA

4:55 AM PDT on August 27, 2014 (GMT -0700)
Palm Springs International | Change Station
CLOSE
Current Station
Airport
Location: Palm Springs,
Elevation: 476 ft
Nearby Weather Stations

Elev 476 ft 33.82 °N, 116.50 °W | Updated 1 hour ago

Clear
Clear
82 °F
Feels Like 82 °F
N
4
Wind Variable Wind from South

Today
High -- | Low -- °F
--% Chance of Precip.
Yesterday
High -- | Low -- °F
Precip. -- in
6:17 AM 7:18 PM
Waxing Crescent, 3% visible
Pressure 29.91 in
Visibility 10.0 miles
Clouds Clear
Dew Point 52 °F
Humidity 35%
Rainfall 0.00 in
Snow Depth Not available.
UV 0 out of 12
Pollen 6.80 out of 12
Ozone Good
PM2.5 Good
Flu Activity Not available.
METAR KPSP 271053Z 19003KT 10SM CLR 28/11 A2992 RMK AO2 SLP127 T02780111

More Conditions Fewer Conditions

Pressure 29.91 in
Visibility 10.0 miles
Clouds Clear
Dew Point 52 °F
Humidity 35%
Rainfall 0.00 in
Snow Depth Not available.
UV 0 out of 12
Pollen 6.80 out of 12
Ozone Good
PM2.5 Good
Flu Activity Not available.
METAR KPSP 271053Z 19003KT 10SM CLR 28/11 A2992 RMK AO2 SLP127 T02780111

More Conditions Fewer Conditions

10-Day Weather Forecast

Almanac

Astronomy

Aug. 27, 2014 Rise Set
Actual Time 6:17 AM PDT 7:18 PM PDT
Civil Twilight 5:51 AM PDT 7:44 PM PDT
Nautical Twilight 5:21 AM PDT 8:14 PM PDT
Astronomical Twilight 4:49 AM PDT 8:45 PM PDT
Moon 8:09 AM PDT 8:22 PM PDT
Length of Visible Light 13h 52m
Length of Day
13h 01m
Tomorrow will be 1m 58s shorter.
Waxing Crescent, 3% of the Moon is Illuminated
Today
Waxing Crescent
Sep 2
First Quarter
Sep 8
Full
Sep 15
Last Quarter
Sep 24
New

Today's Extremes

State Highs State Lows

Community

WunderPhotos

Upload Photos

1,747,670 photos uploaded!

Nearby

Air Quality

  Air Quality AQ Index Pollutant
Yesterday Good
OZONE
Yesterday Good
PM2.5
Current Good
PM2.5
Current Good
OZONE
Wednesday Good
PM10
Wednesday Moderate
OZONE
Wednesday Good
CO
Wednesday Good
NO2

Snow Depth

Station Depth Elevation
Leavitt Lake 1 in 9400 ft
Leavitt Meadows 1 in 7200 ft
Sonora Pass 0 in 8800 ft
Summit Meadow 1 in 9122 ft
Ebbetts Pass 0 in 8700 ft

Earthquake Activity

City Distance Mag. Time & Date
San Fernando, California 104 miles 2.5 4:57 AM PDT
2014-08-26
Progreso, Mexico 99 miles 2.6 10:55 PM PDT
2014-08-25
San Pedro, California 91 miles 3.2 7:50 PM PDT
2014-08-24
Minimum magnitude displayed is 2.5.

Coastal Water Temperatures

Place Temperature
No Stations Reporting

Nearby Weather Stations